sensor_id;sensor_type;location;lat;lon;timestamp;temperature;humidity
11399;DHT22;5755;48.116;11.608;2022-08-19T00:01:21;18.60;99.90
11399;DHT22;5755;48.116;11.608;2022-08-19T00:03:49;18.60;99.90
11399;DHT22;5755;48.116;11.608;2022-08-19T00:06:27;18.70;99.90
11399;DHT22;5755;48.116;11.608;2022-08-19T00:08:54;18.70;99.90
11399;DHT22;5755;48.116;11.608;2022-08-19T00:11:22;18.60;99.90
11399;DHT22;5755;48.116;11.608;2022-08-19T00:13:50;18.60;99.90
11399;DHT22;5755;48.116;11.608;2022-08-19T00:16:18;18.60;99.90
11399;DHT22;5755;48.116;11.608;2022-08-19T00:18:46;18.50;99.90
11399;DHT22;5755;48.116;11.608;2022-08-19T00:21:19;18.50;99.90
11399;DHT22;5755;48.116;11.608;2022-08-19T00:23:46;18.50;99.90
11399;DHT22;5755;48.116;11.608;2022-08-19T00:26:18;18.60;99.90
11399;DHT22;5755;48.116;11.608;2022-08-19T00:28:45;18.60;99.90
11399;DHT22;5755;48.116;11.608;2022-08-19T00:31:22;18.60;99.90
11399;DHT22;5755;48.116;11.608;2022-08-19T00:33:50;18.60;99.90
11399;DHT22;5755;48.116;11.608;2022-08-19T00:36:21;18.60;99.90
11399;DHT22;5755;48.116;11.608;2022-08-19T00:38:48;18.60;99.90
11399;DHT22;5755;48.116;11.608;2022-08-19T00:41:19;18.70;99.90
11399;DHT22;5755;48.116;11.608;2022-08-19T00:43:57;18.70;99.90
11399;DHT22;5755;48.116;11.608;2022-08-19T00:46:26;18.80;99.90
11399;DHT22;5755;48.116;11.608;2022-08-19T00:48:57;18.80;99.90
11399;DHT22;5755;48.116;11.608;2022-08-19T00:51:24;18.70;99.90
11399;DHT22;5755;48.116;11.608;2022-08-19T00:53:52;18.70;99.90
11399;DHT22;5755;48.116;11.608;2022-08-19T00:56:19;18.70;99.90
11399;DHT22;5755;48.116;11.608;2022-08-19T00:58:52;18.60;99.90
11399;DHT22;5755;48.116;11.608;2022-08-19T01:01:21;18.60;99.90
11399;DHT22;5755;48.116;11.608;2022-08-19T01:03:51;18.60;99.90
11399;DHT22;5755;48.116;11.608;2022-08-19T01:06:18;18.50;99.90
11399;DHT22;5755;48.116;11.608;2022-08-19T01:08:49;18.60;99.90
11399;DHT22;5755;48.116;11.608;2022-08-19T01:11:17;18.50;99.90
11399;DHT22;5755;48.116;11.608;2022-08-19T01:13:45;18.50;99.90
11399;DHT22;5755;48.116;11.608;2022-08-19T01:16:13;18.40;99.90
11399;DHT22;5755;48.116;11.608;2022-08-19T01:18:42;18.40;99.90
11399;DHT22;5755;48.116;11.608;2022-08-19T01:21:15;18.40;99.90
11399;DHT22;5755;48.116;11.608;2022-08-19T01:23:45;18.40;99.90
11399;DHT22;5755;48.116;11.608;2022-08-19T01:26:14;18.50;99.90
11399;DHT22;5755;48.116;11.608;2022-08-19T01:28:42;18.50;99.90
11399;DHT22;5755;48.116;11.608;2022-08-19T01:31:12;18.60;99.90
11399;DHT22;5755;48.116;11.608;2022-08-19T01:33:39;18.70;99.90
11399;DHT22;5755;48.116;11.608;2022-08-19T01:36:09;18.70;99.90
11399;DHT22;5755;48.116;11.608;2022-08-19T01:38:38;18.80;99.90
11399;DHT22;5755;48.116;11.608;2022-08-19T01:41:10;18.80;99.90
11399;DHT22;5755;48.116;11.608;2022-08-19T01:43:38;18.70;99.90
11399;DHT22;5755;48.116;11.608;2022-08-19T01:46:05;18.60;99.90
11399;DHT22;5755;48.116;11.608;2022-08-19T01:48:37;18.60;99.90
11399;DHT22;5755;48.116;11.608;2022-08-19T01:51:05;18.70;99.90
11399;DHT22;5755;48.116;11.608;2022-08-19T01:53:33;18.70;99.90
11399;DHT22;5755;48.116;11.608;2022-08-19T01:56:04;18.70;99.90
11399;DHT22;5755;48.116;11.608;2022-08-19T01:58:35;18.80;99.90
11399;DHT22;5755;48.116;11.608;2022-08-19T02:01:04;18.70;99.90
11399;DHT22;5755;48.116;11.608;2022-08-19T02:03:32;18.70;99.90
11399;DHT22;5755;48.116;11.608;2022-08-19T02:06:04;18.70;99.90
11399;DHT22;5755;48.116;11.608;2022-08-19T02:08:34;18.70;99.90
11399;DHT22;5755;48.116;11.608;2022-08-19T02:11:02;18.70;99.90
11399;DHT22;5755;48.116;11.608;2022-08-19T02:13:32;18.60;99.90
11399;DHT22;5755;48.116;11.608;2022-08-19T02:16:00;18.60;99.90
11399;DHT22;5755;48.116;11.608;2022-08-19T02:18:30;18.70;99.90
11399;DHT22;5755;48.116;11.608;2022-08-19T02:20:57;18.60;99.90
11399;DHT22;5755;48.116;11.608;2022-08-19T02:23:26;18.50;99.90
11399;DHT22;5755;48.116;11.608;2022-08-19T02:25:53;18.40;99.90
11399;DHT22;5755;48.116;11.608;2022-08-19T02:28:27;18.50;99.90
11399;DHT22;5755;48.116;11.608;2022-08-19T02:30:55;18.50;99.90
11399;DHT22;5755;48.116;11.608;2022-08-19T02:33:33;18.50;99.90
11399;DHT22;5755;48.116;11.608;2022-08-19T02:36:02;18.50;99.90
11399;DHT22;5755;48.116;11.608;2022-08-19T02:38:29;18.50;99.90
11399;DHT22;5755;48.116;11.608;2022-08-19T02:40:59;18.50;99.90
11399;DHT22;5755;48.116;11.608;2022-08-19T02:43:28;18.40;99.90
11399;DHT22;5755;48.116;11.608;2022-08-19T02:46:12;18.40;99.90
11399;DHT22;5755;48.116;11.608;2022-08-19T02:48:47;18.50;99.90
11399;DHT22;5755;48.116;11.608;2022-08-19T02:51:18;18.50;99.90
11399;DHT22;5755;48.116;11.608;2022-08-19T02:53:45;18.60;99.90
11399;DHT22;5755;48.116;11.608;2022-08-19T02:56:12;18.50;99.90
11399;DHT22;5755;48.116;11.608;2022-08-19T02:58:40;18.50;99.90
11399;DHT22;5755;48.116;11.608;2022-08-19T03:01:09;18.50;99.90
11399;DHT22;5755;48.116;11.608;2022-08-19T03:03:36;18.50;99.90
11399;DHT22;5755;48.116;11.608;2022-08-19T03:06:06;18.40;99.90
11399;DHT22;5755;48.116;11.608;2022-08-19T03:08:33;18.50;99.90
11399;DHT22;5755;48.116;11.608;2022-08-19T03:11:00;18.60;99.90
11399;DHT22;5755;48.116;11.608;2022-08-19T03:13:30;18.50;99.90
11399;DHT22;5755;48.116;11.608;2022-08-19T03:15:58;18.50;99.90
11399;DHT22;5755;48.116;11.608;2022-08-19T03:18:26;18.50;99.90
11399;DHT22;5755;48.116;11.608;2022-08-19T03:20:53;18.50;99.90
11399;DHT22;5755;48.116;11.608;2022-08-19T03:23:21;18.60;99.90
11399;DHT22;5755;48.116;11.608;2022-08-19T03:25:50;18.70;99.80
11399;DHT22;5755;48.116;11.608;2022-08-19T03:28:20;18.70;99.50
11399;DHT22;5755;48.116;11.608;2022-08-19T03:30:59;18.70;99.10
11399;DHT22;5755;48.116;11.608;2022-08-19T03:33:31;18.60;99.50
11399;DHT22;5755;48.116;11.608;2022-08-19T03:36:04;18.60;99.90
11399;DHT22;5755;48.116;11.608;2022-08-19T03:38:36;18.50;99.90
11399;DHT22;5755;48.116;11.608;2022-08-19T03:41:12;18.50;99.90
11399;DHT22;5755;48.116;11.608;2022-08-19T03:43:40;18.50;99.90
11399;DHT22;5755;48.116;11.608;2022-08-19T03:46:09;18.50;99.90
11399;DHT22;5755;48.116;11.608;2022-08-19T03:48:42;18.50;99.80
11399;DHT22;5755;48.116;11.608;2022-08-19T03:51:16;18.40;99.90
11399;DHT22;5755;48.116;11.608;2022-08-19T03:53:43;18.40;99.90
11399;DHT22;5755;48.116;11.608;2022-08-19T03:56:10;18.50;99.90
11399;DHT22;5755;48.116;11.608;2022-08-19T03:58:39;18.40;99.90
11399;DHT22;5755;48.116;11.608;2022-08-19T04:01:08;18.40;99.90
11399;DHT22;5755;48.116;11.608;2022-08-19T04:03:36;18.50;99.90
11399;DHT22;5755;48.116;11.608;2022-08-19T04:06:11;18.60;99.90
11399;DHT22;5755;48.116;11.608;2022-08-19T04:08:53;18.60;99.50
11399;DHT22;5755;48.116;11.608;2022-08-19T04:11:24;18.60;99.50
11399;DHT22;5755;48.116;11.608;2022-08-19T04:13:53;18.70;99.40
11399;DHT22;5755;48.116;11.608;2022-08-19T04:16:22;18.70;99.70
11399;DHT22;5755;48.116;11.608;2022-08-19T04:18:49;18.80;99.50
11399;DHT22;5755;48.116;11.608;2022-08-19T04:21:25;18.90;98.80
11399;DHT22;5755;48.116;11.608;2022-08-19T04:23:52;19.00;98.70
11399;DHT22;5755;48.116;11.608;2022-08-19T04:30:12;18.90;99.30
11399;DHT22;5755;48.116;11.608;2022-08-19T04:32:41;18.80;99.00
11399;DHT22;5755;48.116;11.608;2022-08-19T04:35:09;18.80;99.30
11399;DHT22;5755;48.116;11.608;2022-08-19T04:37:38;18.70;99.40
11399;DHT22;5755;48.116;11.608;2022-08-19T04:40:06;18.70;99.60
11399;DHT22;5755;48.116;11.608;2022-08-19T04:42:51;18.70;99.60
11399;DHT22;5755;48.116;11.608;2022-08-19T04:45:21;18.70;99.80
11399;DHT22;5755;48.116;11.608;2022-08-19T04:47:48;18.90;99.20
11399;DHT22;5755;48.116;11.608;2022-08-19T04:50:15;18.90;98.90
11399;DHT22;5755;48.116;11.608;2022-08-19T04:52:43;19.00;98.50
11399;DHT22;5755;48.116;11.608;2022-08-19T04:55:11;19.00;98.70
11399;DHT22;5755;48.116;11.608;2022-08-19T04:57:38;19.00;98.80
11399;DHT22;5755;48.116;11.608;2022-08-19T05:00:06;19.00;98.20
11399;DHT22;5755;48.116;11.608;2022-08-19T05:02:33;19.00;98.50
11399;DHT22;5755;48.116;11.608;2022-08-19T05:05:00;19.00;98.40
11399;DHT22;5755;48.116;11.608;2022-08-19T05:07:27;18.90;99.00
11399;DHT22;5755;48.116;11.608;2022-08-19T05:09:56;18.90;99.20
11399;DHT22;5755;48.116;11.608;2022-08-19T05:12:27;18.90;98.90
11399;DHT22;5755;48.116;11.608;2022-08-19T05:15:04;18.90;99.10
11399;DHT22;5755;48.116;11.608;2022-08-19T05:17:34;18.80;99.10
11399;DHT22;5755;48.116;11.608;2022-08-19T05:20:01;18.80;99.10
11399;DHT22;5755;48.116;11.608;2022-08-19T05:22:51;18.80;99.30
11399;DHT22;5755;48.116;11.608;2022-08-19T05:25:34;18.80;99.60
11399;DHT22;5755;48.116;11.608;2022-08-19T05:28:03;18.80;99.50
11399;DHT22;5755;48.116;11.608;2022-08-19T05:30:30;18.70;99.60
11399;DHT22;5755;48.116;11.608;2022-08-19T05:32:57;18.70;99.90
11399;DHT22;5755;48.116;11.608;2022-08-19T05:35:24;18.70;99.90
11399;DHT22;5755;48.116;11.608;2022-08-19T05:37:51;18.80;99.70
11399;DHT22;5755;48.116;11.608;2022-08-19T05:40:19;18.80;99.60
11399;DHT22;5755;48.116;11.608;2022-08-19T05:42:48;18.80;99.20
11399;DHT22;5755;48.116;11.608;2022-08-19T05:45:21;18.70;99.40
11399;DHT22;5755;48.116;11.608;2022-08-19T05:47:47;18.70;99.80
11399;DHT22;5755;48.116;11.608;2022-08-19T05:50:15;18.60;99.80
11399;DHT22;5755;48.116;11.608;2022-08-19T05:52:42;18.70;99.90
11399;DHT22;5755;48.116;11.608;2022-08-19T05:55:10;18.70;99.90
11399;DHT22;5755;48.116;11.608;2022-08-19T05:57:37;18.70;99.90
11399;DHT22;5755;48.116;11.608;2022-08-19T06:00:07;18.70;99.90
11399;DHT22;5755;48.116;11.608;2022-08-19T06:02:36;18.80;99.90
11399;DHT22;5755;48.116;11.608;2022-08-19T06:05:03;18.90;99.70
11399;DHT22;5755;48.116;11.608;2022-08-19T06:07:32;18.90;99.40
11399;DHT22;5755;48.116;11.608;2022-08-19T06:13:19;19.20;98.70
11399;DHT22;5755;48.116;11.608;2022-08-19T06:16:05;19.20;97.90
11399;DHT22;5755;48.116;11.608;2022-08-19T06:18:31;19.10;97.90
11399;DHT22;5755;48.116;11.608;2022-08-19T06:20:58;19.10;98.30
11399;DHT22;5755;48.116;11.608;2022-08-19T06:23:27;19.10;98.60
11399;DHT22;5755;48.116;11.608;2022-08-19T06:25:54;19.10;98.90
11399;DHT22;5755;48.116;11.608;2022-08-19T06:28:21;19.00;99.00
11399;DHT22;5755;48.116;11.608;2022-08-19T06:30:49;19.00;99.50
11399;DHT22;5755;48.116;11.608;2022-08-19T06:33:18;18.90;99.60
11399;DHT22;5755;48.116;11.608;2022-08-19T06:35:44;18.80;99.90
11399;DHT22;5755;48.116;11.608;2022-08-19T06:38:11;18.80;99.90
11399;DHT22;5755;48.116;11.608;2022-08-19T06:40:38;18.80;99.90
11399;DHT22;5755;48.116;11.608;2022-08-19T06:43:05;18.80;99.90
11399;DHT22;5755;48.116;11.608;2022-08-19T06:45:32;18.70;99.90
11399;DHT22;5755;48.116;11.608;2022-08-19T06:47:59;18.70;99.90
11399;DHT22;5755;48.116;11.608;2022-08-19T06:50:28;18.70;99.90
11399;DHT22;5755;48.116;11.608;2022-08-19T06:52:54;18.80;99.90
11399;DHT22;5755;48.116;11.608;2022-08-19T06:55:27;18.80;99.90
11399;DHT22;5755;48.116;11.608;2022-08-19T06:57:55;18.90;99.90
11399;DHT22;5755;48.116;11.608;2022-08-19T07:00:22;18.90;99.90
11399;DHT22;5755;48.116;11.608;2022-08-19T07:02:49;18.90;99.90
11399;DHT22;5755;48.116;11.608;2022-08-19T07:05:16;19.00;99.90
11399;DHT22;5755;48.116;11.608;2022-08-19T07:07:44;19.00;99.90
11399;DHT22;5755;48.116;11.608;2022-08-19T07:10:11;19.00;99.90
11399;DHT22;5755;48.116;11.608;2022-08-19T07:12:38;19.10;99.90
11399;DHT22;5755;48.116;11.608;2022-08-19T07:15:06;19.10;99.90
11399;DHT22;5755;48.116;11.608;2022-08-19T07:17:35;19.30;99.90
11399;DHT22;5755;48.116;11.608;2022-08-19T07:20:15;19.40;99.90
11399;DHT22;5755;48.116;11.608;2022-08-19T07:22:43;19.50;99.90
11399;DHT22;5755;48.116;11.608;2022-08-19T07:25:11;19.60;99.80
11399;DHT22;5755;48.116;11.608;2022-08-19T07:27:38;19.80;99.80
11399;DHT22;5755;48.116;11.608;2022-08-19T07:30:18;19.90;98.90
11399;DHT22;5755;48.116;11.608;2022-08-19T07:32:47;19.90;98.60
11399;DHT22;5755;48.116;11.608;2022-08-19T07:35:16;19.90;98.30
11399;DHT22;5755;48.116;11.608;2022-08-19T07:37:46;20.00;98.60
11399;DHT22;5755;48.116;11.608;2022-08-19T07:40:13;20.00;98.40
11399;DHT22;5755;48.116;11.608;2022-08-19T07:42:41;20.20;98.10
11399;DHT22;5755;48.116;11.608;2022-08-19T07:45:08;20.20;98.10
11399;DHT22;5755;48.116;11.608;2022-08-19T07:47:35;20.10;98.50
11399;DHT22;5755;48.116;11.608;2022-08-19T07:50:04;20.00;98.30
11399;DHT22;5755;48.116;11.608;2022-08-19T07:52:32;20.10;98.10
11399;DHT22;5755;48.116;11.608;2022-08-19T07:55:07;20.10;98.10
11399;DHT22;5755;48.116;11.608;2022-08-19T07:57:33;19.90;98.10
11399;DHT22;5755;48.116;11.608;2022-08-19T08:00:00;19.80;98.90
11399;DHT22;5755;48.116;11.608;2022-08-19T08:02:27;19.70;98.90
11399;DHT22;5755;48.116;11.608;2022-08-19T08:04:54;19.80;99.10
11399;DHT22;5755;48.116;11.608;2022-08-19T08:07:38;19.60;98.90
11399;DHT22;5755;48.116;11.608;2022-08-19T08:10:29;19.90;99.00
11399;DHT22;5755;48.116;11.608;2022-08-19T08:12:55;19.90;98.40
11399;DHT22;5755;48.116;11.608;2022-08-19T08:15:22;20.00;98.40
11399;DHT22;5755;48.116;11.608;2022-08-19T08:17:49;20.00;98.20
11399;DHT22;5755;48.116;11.608;2022-08-19T08:20:33;20.00;98.10
11399;DHT22;5755;48.116;11.608;2022-08-19T08:23:00;20.00;98.10
11399;DHT22;5755;48.116;11.608;2022-08-19T08:25:46;20.00;98.10
11399;DHT22;5755;48.116;11.608;2022-08-19T08:28:15;19.90;98.10
11399;DHT22;5755;48.116;11.608;2022-08-19T08:30:42;19.90;98.40
11399;DHT22;5755;48.116;11.608;2022-08-19T08:33:11;19.90;98.50
11399;DHT22;5755;48.116;11.608;2022-08-19T08:35:40;19.90;98.50
11399;DHT22;5755;48.116;11.608;2022-08-19T08:38:09;20.00;98.50
11399;DHT22;5755;48.116;11.608;2022-08-19T08:40:43;19.90;98.60
11399;DHT22;5755;48.116;11.608;2022-08-19T08:43:19;19.80;98.70
11399;DHT22;5755;48.116;11.608;2022-08-19T08:45:54;19.60;99.30
11399;DHT22;5755;48.116;11.608;2022-08-19T08:48:35;19.60;99.60
11399;DHT22;5755;48.116;11.608;2022-08-19T08:51:05;19.60;99.60
11399;DHT22;5755;48.116;11.608;2022-08-19T08:53:34;19.60;99.30
11399;DHT22;5755;48.116;11.608;2022-08-19T08:56:15;19.60;99.50
11399;DHT22;5755;48.116;11.608;2022-08-19T08:58:51;19.50;99.50
11399;DHT22;5755;48.116;11.608;2022-08-19T09:01:20;19.50;99.70
11399;DHT22;5755;48.116;11.608;2022-08-19T09:03:48;19.40;99.90
11399;DHT22;5755;48.116;11.608;2022-08-19T09:06:22;19.40;99.90
11399;DHT22;5755;48.116;11.608;2022-08-19T09:09:01;19.40;99.90
11399;DHT22;5755;48.116;11.608;2022-08-19T09:11:39;19.30;99.90
11399;DHT22;5755;48.116;11.608;2022-08-19T09:14:18;19.30;99.90
11399;DHT22;5755;48.116;11.608;2022-08-19T09:16:46;19.30;99.90
11399;DHT22;5755;48.116;11.608;2022-08-19T09:19:13;19.30;99.90
11399;DHT22;5755;48.116;11.608;2022-08-19T09:21:45;19.30;99.90
11399;DHT22;5755;48.116;11.608;2022-08-19T09:24:12;19.30;99.90
11399;DHT22;5755;48.116;11.608;2022-08-19T09:26:39;19.20;99.90
11399;DHT22;5755;48.116;11.608;2022-08-19T09:29:06;19.10;99.90
11399;DHT22;5755;48.116;11.608;2022-08-19T09:31:36;19.00;99.90
11399;DHT22;5755;48.116;11.608;2022-08-19T09:34:03;19.00;99.90
11399;DHT22;5755;48.116;11.608;2022-08-19T09:36:31;19.00;99.90
11399;DHT22;5755;48.116;11.608;2022-08-19T09:39:02;19.10;99.90
11399;DHT22;5755;48.116;11.608;2022-08-19T09:41:35;19.30;99.90
11399;DHT22;5755;48.116;11.608;2022-08-19T09:44:13;19.40;99.90
11399;DHT22;5755;48.116;11.608;2022-08-19T09:50:27;19.70;99.90
11399;DHT22;5755;48.116;11.608;2022-08-19T09:52:57;20.00;99.90
11399;DHT22;5755;48.116;11.608;2022-08-19T09:55:25;20.20;99.70
11399;DHT22;5755;48.116;11.608;2022-08-19T09:57:53;20.40;99.50
11399;DHT22;5755;48.116;11.608;2022-08-19T10:00:20;20.80;98.50
11399;DHT22;5755;48.116;11.608;2022-08-19T10:02:47;21.00;98.30
11399;DHT22;5755;48.116;11.608;2022-08-19T10:05:16;21.40;96.70
11399;DHT22;5755;48.116;11.608;2022-08-19T10:08:00;21.50;95.40
11399;DHT22;5755;48.116;11.608;2022-08-19T10:10:27;21.40;95.10
11399;DHT22;5755;48.116;11.608;2022-08-19T10:12:54;21.30;96.00
11399;DHT22;5755;48.116;11.608;2022-08-19T10:15:21;21.40;96.10
11399;DHT22;5755;48.116;11.608;2022-08-19T10:17:48;21.70;96.40
11399;DHT22;5755;48.116;11.608;2022-08-19T10:20:16;21.70;95.50
11399;DHT22;5755;48.116;11.608;2022-08-19T10:22:43;21.80;95.20
11399;DHT22;5755;48.116;11.608;2022-08-19T10:25:15;22.00;94.10
11399;DHT22;5755;48.116;11.608;2022-08-19T10:27:45;22.30;93.20
11399;DHT22;5755;48.116;11.608;2022-08-19T10:30:13;22.50;92.70
11399;DHT22;5755;48.116;11.608;2022-08-19T10:32:40;22.50;92.70
11399;DHT22;5755;48.116;11.608;2022-08-19T10:35:07;22.60;92.80
11399;DHT22;5755;48.116;11.608;2022-08-19T10:37:36;22.90;92.50
11399;DHT22;5755;48.116;11.608;2022-08-19T10:40:04;23.50;90.10
11399;DHT22;5755;48.116;11.608;2022-08-19T10:42:33;23.90;87.10
11399;DHT22;5755;48.116;11.608;2022-08-19T10:44:59;24.20;80.50
11399;DHT22;5755;48.116;11.608;2022-08-19T10:47:26;24.40;80.50
11399;DHT22;5755;48.116;11.608;2022-08-19T10:49:54;24.30;80.20
11399;DHT22;5755;48.116;11.608;2022-08-19T10:52:41;24.30;79.00
11399;DHT22;5755;48.116;11.608;2022-08-19T10:55:08;24.20;81.80
11399;DHT22;5755;48.116;11.608;2022-08-19T10:57:53;24.40;83.20
11399;DHT22;5755;48.116;11.608;2022-08-19T11:00:20;24.30;83.40
11399;DHT22;5755;48.116;11.608;2022-08-19T11:02:48;24.10;83.80
11399;DHT22;5755;48.116;11.608;2022-08-19T11:05:15;23.80;83.50
11399;DHT22;5755;48.116;11.608;2022-08-19T11:07:46;23.40;83.20
11399;DHT22;5755;48.116;11.608;2022-08-19T11:10:21;23.10;85.20
11399;DHT22;5755;48.116;11.608;2022-08-19T11:12:49;22.90;87.20
11399;DHT22;5755;48.116;11.608;2022-08-19T11:15:21;22.90;87.20
11399;DHT22;5755;48.116;11.608;2022-08-19T11:17:49;22.80;90.30
11399;DHT22;5755;48.116;11.608;2022-08-19T11:20:21;22.70;91.00
11399;DHT22;5755;48.116;11.608;2022-08-19T11:22:51;22.70;91.40
11399;DHT22;5755;48.116;11.608;2022-08-19T11:25:19;23.00;90.50
11399;DHT22;5755;48.116;11.608;2022-08-19T11:27:45;23.70;87.80
11399;DHT22;5755;48.116;11.608;2022-08-19T11:30:27;24.30;82.20
11399;DHT22;5755;48.116;11.608;2022-08-19T11:32:54;24.80;75.90
11399;DHT22;5755;48.116;11.608;2022-08-19T11:35:33;24.60;73.80
11399;DHT22;5755;48.116;11.608;2022-08-19T11:38:04;24.50;71.80
11399;DHT22;5755;48.116;11.608;2022-08-19T11:40:31;24.10;77.80
11399;DHT22;5755;48.116;11.608;2022-08-19T11:42:58;24.00;78.60
11399;DHT22;5755;48.116;11.608;2022-08-19T11:45:26;23.70;80.70
11399;DHT22;5755;48.116;11.608;2022-08-19T11:47:54;23.50;83.30
11399;DHT22;5755;48.116;11.608;2022-08-19T11:50:22;23.30;80.90
11399;DHT22;5755;48.116;11.608;2022-08-19T11:52:49;23.00;81.00
11399;DHT22;5755;48.116;11.608;2022-08-19T11:55:29;22.80;84.40
11399;DHT22;5755;48.116;11.608;2022-08-19T11:57:56;22.60;84.50
11399;DHT22;5755;48.116;11.608;2022-08-19T12:00:23;22.50;87.60
11399;DHT22;5755;48.116;11.608;2022-08-19T12:02:51;22.50;86.80
11399;DHT22;5755;48.116;11.608;2022-08-19T12:05:21;22.60;82.70
11399;DHT22;5755;48.116;11.608;2022-08-19T12:07:47;22.70;82.80
11399;DHT22;5755;48.116;11.608;2022-08-19T12:10:14;22.60;82.70
11399;DHT22;5755;48.116;11.608;2022-08-19T12:12:47;22.50;84.70
11399;DHT22;5755;48.116;11.608;2022-08-19T12:15:15;22.40;86.40
11399;DHT22;5755;48.116;11.608;2022-08-19T12:17:45;22.40;86.80
11399;DHT22;5755;48.116;11.608;2022-08-19T12:20:13;22.30;86.60
11399;DHT22;5755;48.116;11.608;2022-08-19T12:22:45;22.30;84.80
11399;DHT22;5755;48.116;11.608;2022-08-19T12:25:21;22.30;85.60
11399;DHT22;5755;48.116;11.608;2022-08-19T12:27:49;22.20;86.50
11399;DHT22;5755;48.116;11.608;2022-08-19T12:30:21;22.10;88.30
11399;DHT22;5755;48.116;11.608;2022-08-19T12:32:48;22.10;87.10
11399;DHT22;5755;48.116;11.608;2022-08-19T12:35:16;22.10;89.00
11399;DHT22;5755;48.116;11.608;2022-08-19T12:37:46;22.20;87.70
11399;DHT22;5755;48.116;11.608;2022-08-19T12:40:16;22.50;84.10
11399;DHT22;5755;48.116;11.608;2022-08-19T12:42:43;22.30;84.90
11399;DHT22;5755;48.116;11.608;2022-08-19T12:45:12;22.30;85.40
11399;DHT22;5755;48.116;11.608;2022-08-19T12:47:40;22.50;82.70
11399;DHT22;5755;48.116;11.608;2022-08-19T12:50:07;22.80;81.00
11399;DHT22;5755;48.116;11.608;2022-08-19T12:52:35;23.00;80.60
11399;DHT22;5755;48.116;11.608;2022-08-19T12:55:05;23.00;80.20
11399;DHT22;5755;48.116;11.608;2022-08-19T12:57:36;23.10;79.90
11399;DHT22;5755;48.116;11.608;2022-08-19T13:00:05;23.10;79.40
11399;DHT22;5755;48.116;11.608;2022-08-19T13:02:43;23.30;77.80
11399;DHT22;5755;48.116;11.608;2022-08-19T13:05:12;23.20;77.10
11399;DHT22;5755;48.116;11.608;2022-08-19T13:07:42;23.40;75.90
11399;DHT22;5755;48.116;11.608;2022-08-19T13:10:10;23.60;74.10
11399;DHT22;5755;48.116;11.608;2022-08-19T13:13:09;23.60;73.10
11399;DHT22;5755;48.116;11.608;2022-08-19T13:15:51;23.60;74.90
11399;DHT22;5755;48.116;11.608;2022-08-19T13:18:19;23.50;70.40
11399;DHT22;5755;48.116;11.608;2022-08-19T13:20:46;23.40;71.30
11399;DHT22;5755;48.116;11.608;2022-08-19T13:23:13;23.50;71.30
11399;DHT22;5755;48.116;11.608;2022-08-19T13:25:40;23.70;68.60
11399;DHT22;5755;48.116;11.608;2022-08-19T13:28:09;24.00;67.60
11399;DHT22;5755;48.116;11.608;2022-08-19T13:30:36;24.00;67.80
11399;DHT22;5755;48.116;11.608;2022-08-19T13:33:23;24.00;64.20
11399;DHT22;5755;48.116;11.608;2022-08-19T13:35:59;23.80;60.40
11399;DHT22;5755;48.116;11.608;2022-08-19T13:38:28;23.70;63.60
11399;DHT22;5755;48.116;11.608;2022-08-19T13:40:55;23.70;68.70
11399;DHT22;5755;48.116;11.608;2022-08-19T13:43:26;23.60;67.40
11399;DHT22;5755;48.116;11.608;2022-08-19T13:45:54;23.40;70.40
11399;DHT22;5755;48.116;11.608;2022-08-19T13:48:29;23.50;72.20
11399;DHT22;5755;48.116;11.608;2022-08-19T13:50:56;23.50;69.70
11399;DHT22;5755;48.116;11.608;2022-08-19T13:53:23;23.40;71.60
11399;DHT22;5755;48.116;11.608;2022-08-19T13:55:50;23.40;71.20
11399;DHT22;5755;48.116;11.608;2022-08-19T13:58:19;23.30;73.60
11399;DHT22;5755;48.116;11.608;2022-08-19T14:00:46;23.20;75.40
11399;DHT22;5755;48.116;11.608;2022-08-19T14:03:14;23.20;73.80
11399;DHT22;5755;48.116;11.608;2022-08-19T14:05:42;23.10;74.90
11399;DHT22;5755;48.116;11.608;2022-08-19T14:08:09;23.00;76.10
11399;DHT22;5755;48.116;11.608;2022-08-19T14:10:39;22.90;77.00
11399;DHT22;5755;48.116;11.608;2022-08-19T14:13:07;22.90;76.80
11399;DHT22;5755;48.116;11.608;2022-08-19T14:15:34;22.90;77.80
11399;DHT22;5755;48.116;11.608;2022-08-19T14:18:02;22.60;79.80
11399;DHT22;5755;48.116;11.608;2022-08-19T14:20:29;22.60;79.00
11399;DHT22;5755;48.116;11.608;2022-08-19T14:22:57;22.60;80.50
11399;DHT22;5755;48.116;11.608;2022-08-19T14:25:27;22.80;79.80
11399;DHT22;5755;48.116;11.608;2022-08-19T14:27:55;22.90;78.90
11399;DHT22;5755;48.116;11.608;2022-08-19T14:30:24;23.10;75.30
11399;DHT22;5755;48.116;11.608;2022-08-19T14:32:52;23.40;73.90
11399;DHT22;5755;48.116;11.608;2022-08-19T14:35:22;23.60;69.10
11399;DHT22;5755;48.116;11.608;2022-08-19T14:37:50;23.60;71.70
11399;DHT22;5755;48.116;11.608;2022-08-19T14:40:21;23.30;74.70
11399;DHT22;5755;48.116;11.608;2022-08-19T14:42:51;23.00;77.20
11399;DHT22;5755;48.116;11.608;2022-08-19T14:45:18;23.00;76.70
11399;DHT22;5755;48.116;11.608;2022-08-19T14:47:48;22.90;79.30
11399;DHT22;5755;48.116;11.608;2022-08-19T14:50:15;22.60;79.40
11399;DHT22;5755;48.116;11.608;2022-08-19T14:52:42;22.60;79.80
11399;DHT22;5755;48.116;11.608;2022-08-19T14:55:09;22.40;82.30
11399;DHT22;5755;48.116;11.608;2022-08-19T14:57:37;22.30;82.50
11399;DHT22;5755;48.116;11.608;2022-08-19T15:00:06;22.40;82.50
11399;DHT22;5755;48.116;11.608;2022-08-19T15:02:37;22.30;82.40
11399;DHT22;5755;48.116;11.608;2022-08-19T15:05:04;22.50;82.60
11399;DHT22;5755;48.116;11.608;2022-08-19T15:07:31;22.50;82.60
11399;DHT22;5755;48.116;11.608;2022-08-19T15:09:58;22.40;81.30
11399;DHT22;5755;48.116;11.608;2022-08-19T15:12:27;22.50;82.60
11399;DHT22;5755;48.116;11.608;2022-08-19T15:14:59;22.60;80.10
11399;DHT22;5755;48.116;11.608;2022-08-19T15:17:25;22.80;80.00
11399;DHT22;5755;48.116;11.608;2022-08-19T15:19:57;22.60;78.30
11399;DHT22;5755;48.116;11.608;2022-08-19T15:22:24;22.40;78.70
11399;DHT22;5755;48.116;11.608;2022-08-19T15:24:51;22.30;79.30
11399;DHT22;5755;48.116;11.608;2022-08-19T15:27:19;22.20;79.50
11399;DHT22;5755;48.116;11.608;2022-08-19T15:29:46;22.20;78.80
11399;DHT22;5755;48.116;11.608;2022-08-19T15:32:15;22.20;79.80
11399;DHT22;5755;48.116;11.608;2022-08-19T15:34:41;22.10;79.70
11399;DHT22;5755;48.116;11.608;2022-08-19T15:37:11;22.10;80.00
11399;DHT22;5755;48.116;11.608;2022-08-19T15:39:38;21.90;82.10
11399;DHT22;5755;48.116;11.608;2022-08-19T15:42:05;21.70;84.70
11399;DHT22;5755;48.116;11.608;2022-08-19T15:44:32;21.30;89.80
11399;DHT22;5755;48.116;11.608;2022-08-19T15:46:59;21.20;91.30
11399;DHT22;5755;48.116;11.608;2022-08-19T15:49:27;20.90;92.80
11399;DHT22;5755;48.116;11.608;2022-08-19T15:51:54;20.80;92.90
11399;DHT22;5755;48.116;11.608;2022-08-19T15:54:22;20.90;93.60
11399;DHT22;5755;48.116;11.608;2022-08-19T15:56:50;21.00;94.30